sensor_id;sensor_type;location;lat;lon;timestamp;P1;durP1;ratioP1;P2;durP2;ratioP2
19036;SDS011;9651;49.138;8.900;2022-11-20T00:00:56;9.50;;;6.13;;
19036;SDS011;9651;49.138;8.900;2022-11-20T00:04:57;9.00;;;6.00;;
19036;SDS011;9651;49.138;8.900;2022-11-20T00:09:01;9.87;;;6.10;;
19036;SDS011;9651;49.138;8.900;2022-11-20T00:13:03;7.77;;;5.60;;
19036;SDS011;9651;49.138;8.900;2022-11-20T00:17:05;10.10;;;6.43;;
19036;SDS011;9651;49.138;8.900;2022-11-20T00:21:09;9.20;;;5.90;;
19036;SDS011;9651;49.138;8.900;2022-11-20T00:25:14;10.20;;;6.40;;
19036;SDS011;9651;49.138;8.900;2022-11-20T00:29:16;12.63;;;7.60;;
19036;SDS011;9651;49.138;8.900;2022-11-20T00:33:17;11.30;;;7.83;;
19036;SDS011;9651;49.138;8.900;2022-11-20T00:37:19;11.00;;;6.93;;
19036;SDS011;9651;49.138;8.900;2022-11-20T00:41:23;11.70;;;7.20;;
19036;SDS011;9651;49.138;8.900;2022-11-20T00:45:25;11.53;;;7.07;;
19036;SDS011;9651;49.138;8.900;2022-11-20T00:49:27;12.70;;;7.57;;
19036;SDS011;9651;49.138;8.900;2022-11-20T00:53:29;12.90;;;8.27;;
19036;SDS011;9651;49.138;8.900;2022-11-20T00:57:32;11.83;;;7.43;;
19036;SDS011;9651;49.138;8.900;2022-11-20T01:01:34;11.37;;;6.80;;
19036;SDS011;9651;49.138;8.900;2022-11-20T01:05:37;10.50;;;6.93;;
19036;SDS011;9651;49.138;8.900;2022-11-20T01:09:39;11.17;;;7.47;;
19036;SDS011;9651;49.138;8.900;2022-11-20T01:13:42;10.73;;;6.60;;
19036;SDS011;9651;49.138;8.900;2022-11-20T01:17:45;9.53;;;6.67;;
19036;SDS011;9651;49.138;8.900;2022-11-20T01:21:48;11.23;;;7.07;;
19036;SDS011;9651;49.138;8.900;2022-11-20T01:25:51;10.47;;;6.47;;
19036;SDS011;9651;49.138;8.900;2022-11-20T01:29:55;10.90;;;6.17;;
19036;SDS011;9651;49.138;8.900;2022-11-20T01:33:57;9.83;;;6.43;;
19036;SDS011;9651;49.138;8.900;2022-11-20T01:38:01;13.37;;;7.70;;
19036;SDS011;9651;49.138;8.900;2022-11-20T01:42:03;10.00;;;6.23;;
19036;SDS011;9651;49.138;8.900;2022-11-20T01:46:38;11.67;;;7.30;;
19036;SDS011;9651;49.138;8.900;2022-11-20T01:50:43;11.63;;;6.20;;
19036;SDS011;9651;49.138;8.900;2022-11-20T01:54:46;11.33;;;6.93;;
19036;SDS011;9651;49.138;8.900;2022-11-20T01:58:53;12.20;;;7.20;;
19036;SDS011;9651;49.138;8.900;2022-11-20T02:03:00;10.40;;;6.77;;
19036;SDS011;9651;49.138;8.900;2022-11-20T02:07:06;12.20;;;7.53;;
19036;SDS011;9651;49.138;8.900;2022-11-20T02:11:09;11.20;;;6.90;;
19036;SDS011;9651;49.138;8.900;2022-11-20T02:15:12;9.63;;;6.13;;
19036;SDS011;9651;49.138;8.900;2022-11-20T02:19:19;11.30;;;6.87;;
19036;SDS011;9651;49.138;8.900;2022-11-20T02:23:26;15.50;;;7.40;;
19036;SDS011;9651;49.138;8.900;2022-11-20T02:27:34;10.20;;;6.60;;
19036;SDS011;9651;49.138;8.900;2022-11-20T02:31:37;14.10;;;7.43;;
19036;SDS011;9651;49.138;8.900;2022-11-20T02:35:45;12.27;;;6.57;;
19036;SDS011;9651;49.138;8.900;2022-11-20T02:39:48;11.07;;;6.50;;
19036;SDS011;9651;49.138;8.900;2022-11-20T02:43:54;12.10;;;7.30;;
19036;SDS011;9651;49.138;8.900;2022-11-20T02:47:56;13.60;;;7.20;;
19036;SDS011;9651;49.138;8.900;2022-11-20T02:51:58;15.53;;;8.40;;
19036;SDS011;9651;49.138;8.900;2022-11-20T02:56:00;11.40;;;6.90;;
19036;SDS011;9651;49.138;8.900;2022-11-20T03:00:04;11.30;;;7.60;;
19036;SDS011;9651;49.138;8.900;2022-11-20T03:04:07;15.47;;;7.43;;
19036;SDS011;9651;49.138;8.900;2022-11-20T03:08:09;12.20;;;7.17;;
19036;SDS011;9651;49.138;8.900;2022-11-20T03:12:10;11.83;;;6.97;;
19036;SDS011;9651;49.138;8.900;2022-11-20T03:16:15;12.07;;;7.80;;
19036;SDS011;9651;49.138;8.900;2022-11-20T03:20:18;13.93;;;6.73;;
19036;SDS011;9651;49.138;8.900;2022-11-20T03:24:20;12.63;;;7.67;;
19036;SDS011;9651;49.138;8.900;2022-11-20T03:28:21;9.87;;;6.80;;
19036;SDS011;9651;49.138;8.900;2022-11-20T03:32:25;11.20;;;7.10;;
19036;SDS011;9651;49.138;8.900;2022-11-20T03:36:27;10.63;;;6.77;;
19036;SDS011;9651;49.138;8.900;2022-11-20T03:40:29;13.33;;;6.77;;
19036;SDS011;9651;49.138;8.900;2022-11-20T03:44:31;11.00;;;6.40;;
19036;SDS011;9651;49.138;8.900;2022-11-20T03:48:34;11.10;;;6.63;;
19036;SDS011;9651;49.138;8.900;2022-11-20T03:52:36;14.70;;;7.73;;
19036;SDS011;9651;49.138;8.900;2022-11-20T03:56:38;10.13;;;6.27;;
19036;SDS011;9651;49.138;8.900;2022-11-20T04:00:40;14.07;;;7.50;;
19036;SDS011;9651;49.138;8.900;2022-11-20T04:04:43;11.20;;;6.80;;
19036;SDS011;9651;49.138;8.900;2022-11-20T04:08:45;9.23;;;5.83;;
19036;SDS011;9651;49.138;8.900;2022-11-20T04:12:47;8.07;;;5.40;;
19036;SDS011;9651;49.138;8.900;2022-11-20T04:16:49;8.87;;;5.57;;
19036;SDS011;9651;49.138;8.900;2022-11-20T04:20:52;8.53;;;6.47;;
19036;SDS011;9651;49.138;8.900;2022-11-20T04:24:54;11.73;;;5.23;;
19036;SDS011;9651;49.138;8.900;2022-11-20T04:28:56;7.77;;;4.90;;
19036;SDS011;9651;49.138;8.900;2022-11-20T04:32:59;8.93;;;5.17;;
19036;SDS011;9651;49.138;8.900;2022-11-20T04:37:02;10.30;;;4.30;;
19036;SDS011;9651;49.138;8.900;2022-11-20T04:41:04;6.93;;;4.53;;
19036;SDS011;9651;49.138;8.900;2022-11-20T04:45:08;6.43;;;4.50;;
19036;SDS011;9651;49.138;8.900;2022-11-20T04:49:10;5.87;;;4.30;;
19036;SDS011;9651;49.138;8.900;2022-11-20T04:53:13;5.17;;;4.27;;
19036;SDS011;9651;49.138;8.900;2022-11-20T04:57:15;5.93;;;4.57;;
19036;SDS011;9651;49.138;8.900;2022-11-20T05:01:18;5.67;;;4.40;;
19036;SDS011;9651;49.138;8.900;2022-11-20T05:05:21;8.10;;;4.80;;
19036;SDS011;9651;49.138;8.900;2022-11-20T05:09:24;10.43;;;4.53;;
19036;SDS011;9651;49.138;8.900;2022-11-20T05:13:26;6.63;;;4.23;;
19036;SDS011;9651;49.138;8.900;2022-11-20T05:17:28;7.53;;;4.90;;
19036;SDS011;9651;49.138;8.900;2022-11-20T05:21:30;5.00;;;3.47;;
19036;SDS011;9651;49.138;8.900;2022-11-20T05:25:33;7.70;;;3.80;;
19036;SDS011;9651;49.138;8.900;2022-11-20T05:29:35;5.57;;;4.30;;
19036;SDS011;9651;49.138;8.900;2022-11-20T05:33:39;5.70;;;4.20;;
19036;SDS011;9651;49.138;8.900;2022-11-20T05:37:41;5.57;;;3.97;;
19036;SDS011;9651;49.138;8.900;2022-11-20T05:41:44;6.73;;;3.73;;
19036;SDS011;9651;49.138;8.900;2022-11-20T05:45:51;5.57;;;3.63;;
19036;SDS011;9651;49.138;8.900;2022-11-20T05:49:54;4.47;;;3.20;;
19036;SDS011;9651;49.138;8.900;2022-11-20T05:53:56;5.30;;;3.33;;
19036;SDS011;9651;49.138;8.900;2022-11-20T05:58:00;4.13;;;3.20;;
19036;SDS011;9651;49.138;8.900;2022-11-20T06:02:01;5.57;;;2.97;;
19036;SDS011;9651;49.138;8.900;2022-11-20T06:06:04;3.43;;;2.83;;
19036;SDS011;9651;49.138;8.900;2022-11-20T06:10:06;4.70;;;2.97;;
19036;SDS011;9651;49.138;8.900;2022-11-20T06:14:10;4.20;;;3.07;;
19036;SDS011;9651;49.138;8.900;2022-11-20T06:18:12;4.17;;;2.87;;
19036;SDS011;9651;49.138;8.900;2022-11-20T06:22:14;3.93;;;2.57;;
19036;SDS011;9651;49.138;8.900;2022-11-20T06:26:16;3.90;;;2.70;;
19036;SDS011;9651;49.138;8.900;2022-11-20T06:30:20;4.60;;;2.70;;
19036;SDS011;9651;49.138;8.900;2022-11-20T06:34:22;6.43;;;2.87;;
19036;SDS011;9651;49.138;8.900;2022-11-20T06:38:24;4.40;;;2.80;;
19036;SDS011;9651;49.138;8.900;2022-11-20T06:42:26;5.70;;;3.23;;
19036;SDS011;9651;49.138;8.900;2022-11-20T06:46:29;5.50;;;3.13;;
19036;SDS011;9651;49.138;8.900;2022-11-20T06:50:31;6.23;;;3.17;;
19036;SDS011;9651;49.138;8.900;2022-11-20T06:54:33;4.20;;;3.03;;
19036;SDS011;9651;49.138;8.900;2022-11-20T06:58:35;4.37;;;3.03;;
19036;SDS011;9651;49.138;8.900;2022-11-20T07:02:39;5.23;;;3.10;;
19036;SDS011;9651;49.138;8.900;2022-11-20T07:06:40;4.57;;;2.60;;
19036;SDS011;9651;49.138;8.900;2022-11-20T07:10:42;4.53;;;3.30;;
19036;SDS011;9651;49.138;8.900;2022-11-20T07:14:44;6.13;;;3.03;;
19036;SDS011;9651;49.138;8.900;2022-11-20T07:18:47;3.87;;;2.53;;
19036;SDS011;9651;49.138;8.900;2022-11-20T07:22:52;4.90;;;2.43;;
19036;SDS011;9651;49.138;8.900;2022-11-20T07:26:55;4.27;;;3.00;;
19036;SDS011;9651;49.138;8.900;2022-11-20T07:30:57;4.93;;;2.73;;
19036;SDS011;9651;49.138;8.900;2022-11-20T07:35:01;4.20;;;2.43;;
19036;SDS011;9651;49.138;8.900;2022-11-20T07:39:02;4.80;;;2.83;;
19036;SDS011;9651;49.138;8.900;2022-11-20T07:43:04;4.13;;;2.87;;
19036;SDS011;9651;49.138;8.900;2022-11-20T07:47:06;4.53;;;2.37;;
19036;SDS011;9651;49.138;8.900;2022-11-20T07:51:09;3.97;;;2.63;;
19036;SDS011;9651;49.138;8.900;2022-11-20T07:55:11;4.57;;;2.63;;
19036;SDS011;9651;49.138;8.900;2022-11-20T07:59:14;5.93;;;3.10;;
19036;SDS011;9651;49.138;8.900;2022-11-20T08:03:16;4.20;;;3.00;;
19036;SDS011;9651;49.138;8.900;2022-11-20T08:07:19;4.03;;;3.00;;
19036;SDS011;9651;49.138;8.900;2022-11-20T08:11:21;4.53;;;2.90;;
19036;SDS011;9651;49.138;8.900;2022-11-20T08:15:40;6.40;;;2.80;;
19036;SDS011;9651;49.138;8.900;2022-11-20T08:19:42;5.07;;;4.00;;
19036;SDS011;9651;49.138;8.900;2022-11-20T08:23:45;4.50;;;3.30;;
19036;SDS011;9651;49.138;8.900;2022-11-20T08:27:47;4.30;;;2.80;;
19036;SDS011;9651;49.138;8.900;2022-11-20T08:31:49;3.33;;;2.70;;
19036;SDS011;9651;49.138;8.900;2022-11-20T08:35:51;4.83;;;3.57;;
19036;SDS011;9651;49.138;8.900;2022-11-20T08:39:54;7.53;;;3.37;;
19036;SDS011;9651;49.138;8.900;2022-11-20T08:43:57;5.50;;;3.27;;
19036;SDS011;9651;49.138;8.900;2022-11-20T08:48:01;4.70;;;3.13;;
19036;SDS011;9651;49.138;8.900;2022-11-20T08:52:03;4.00;;;2.70;;
19036;SDS011;9651;49.138;8.900;2022-11-20T08:56:07;6.40;;;3.50;;
19036;SDS011;9651;49.138;8.900;2022-11-20T09:00:10;5.13;;;3.77;;
19036;SDS011;9651;49.138;8.900;2022-11-20T09:04:13;4.20;;;3.27;;
19036;SDS011;9651;49.138;8.900;2022-11-20T09:08:15;6.63;;;3.27;;
19036;SDS011;9651;49.138;8.900;2022-11-20T09:12:18;5.07;;;3.23;;
19036;SDS011;9651;49.138;8.900;2022-11-20T09:16:20;8.17;;;3.80;;
19036;SDS011;9651;49.138;8.900;2022-11-20T09:20:22;5.33;;;3.60;;
19036;SDS011;9651;49.138;8.900;2022-11-20T09:24:24;3.50;;;3.00;;
19036;SDS011;9651;49.138;8.900;2022-11-20T09:28:27;4.47;;;3.30;;
19036;SDS011;9651;49.138;8.900;2022-11-20T09:32:29;4.37;;;3.20;;
19036;SDS011;9651;49.138;8.900;2022-11-20T09:36:31;5.37;;;3.30;;
19036;SDS011;9651;49.138;8.900;2022-11-20T09:40:34;5.47;;;3.67;;
19036;SDS011;9651;49.138;8.900;2022-11-20T09:44:48;4.63;;;3.60;;
19036;SDS011;9651;49.138;8.900;2022-11-20T09:49:01;3.93;;;2.63;;
19036;SDS011;9651;49.138;8.900;2022-11-20T09:53:19;3.97;;;3.10;;
19036;SDS011;9651;49.138;8.900;2022-11-20T09:57:29;3.93;;;2.77;;
19036;SDS011;9651;49.138;8.900;2022-11-20T10:01:36;3.50;;;2.53;;
19036;SDS011;9651;49.138;8.900;2022-11-20T10:05:41;2.57;;;2.03;;
19036;SDS011;9651;49.138;8.900;2022-11-20T10:09:49;6.70;;;2.80;;
19036;SDS011;9651;49.138;8.900;2022-11-20T10:13:55;3.53;;;2.93;;
19036;SDS011;9651;49.138;8.900;2022-11-20T10:18:08;6.27;;;3.47;;
19036;SDS011;9651;49.138;8.900;2022-11-20T10:22:19;4.97;;;3.77;;
19036;SDS011;9651;49.138;8.900;2022-11-20T10:26:35;4.93;;;3.73;;
19036;SDS011;9651;49.138;8.900;2022-11-20T10:30:49;9.60;;;5.43;;
19036;SDS011;9651;49.138;8.900;2022-11-20T10:34:59;5.07;;;2.83;;
19036;SDS011;9651;49.138;8.900;2022-11-20T10:39:06;7.47;;;5.60;;
19036;SDS011;9651;49.138;8.900;2022-11-20T10:43:18;6.23;;;4.63;;
19036;SDS011;9651;49.138;8.900;2022-11-20T10:47:24;7.40;;;5.00;;
19036;SDS011;9651;49.138;8.900;2022-11-20T10:51:35;4.60;;;3.50;;
19036;SDS011;9651;49.138;8.900;2022-11-20T10:55:43;7.17;;;2.87;;
19036;SDS011;9651;49.138;8.900;2022-11-20T10:59:55;4.63;;;2.90;;
19036;SDS011;9651;49.138;8.900;2022-11-20T11:04:07;3.50;;;3.20;;
19036;SDS011;9651;49.138;8.900;2022-11-20T11:08:23;4.27;;;3.13;;
19036;SDS011;9651;49.138;8.900;2022-11-20T11:12:29;8.97;;;4.20;;
19036;SDS011;9651;49.138;8.900;2022-11-20T11:16:31;7.17;;;4.97;;
19036;SDS011;9651;49.138;8.900;2022-11-20T11:20:33;9.67;;;4.33;;
19036;SDS011;9651;49.138;8.900;2022-11-20T11:24:36;7.63;;;4.60;;
19036;SDS011;9651;49.138;8.900;2022-11-20T11:28:38;7.50;;;5.00;;
19036;SDS011;9651;49.138;8.900;2022-11-20T11:32:40;7.77;;;5.17;;
19036;SDS011;9651;49.138;8.900;2022-11-20T11:36:42;4.67;;;2.80;;
19036;SDS011;9651;49.138;8.900;2022-11-20T11:40:55;8.10;;;4.97;;
19036;SDS011;9651;49.138;8.900;2022-11-20T11:44:59;11.90;;;5.97;;
19036;SDS011;9651;49.138;8.900;2022-11-20T11:49:14;12.10;;;7.43;;
19036;SDS011;9651;49.138;8.900;2022-11-20T11:53:18;10.73;;;6.67;;
19036;SDS011;9651;49.138;8.900;2022-11-20T11:57:26;7.70;;;6.00;;
19036;SDS011;9651;49.138;8.900;2022-11-20T12:01:41;7.80;;;3.43;;
19036;SDS011;9651;49.138;8.900;2022-11-20T12:05:48;5.03;;;2.70;;
19036;SDS011;9651;49.138;8.900;2022-11-20T12:09:55;3.37;;;2.50;;
19036;SDS011;9651;49.138;8.900;2022-11-20T12:14:02;7.37;;;3.10;;
19036;SDS011;9651;49.138;8.900;2022-11-20T12:18:15;3.57;;;2.87;;
19036;SDS011;9651;49.138;8.900;2022-11-20T12:22:21;3.13;;;2.40;;
19036;SDS011;9651;49.138;8.900;2022-11-20T12:26:33;6.00;;;2.43;;
19036;SDS011;9651;49.138;8.900;2022-11-20T12:30:52;4.90;;;3.40;;
19036;SDS011;9651;49.138;8.900;2022-11-20T12:35:04;14.07;;;6.20;;
19036;SDS011;9651;49.138;8.900;2022-11-20T12:39:23;8.57;;;4.97;;
19036;SDS011;9651;49.138;8.900;2022-11-20T12:43:33;6.37;;;3.83;;
19036;SDS011;9651;49.138;8.900;2022-11-20T12:48:02;10.97;;;6.00;;
19036;SDS011;9651;49.138;8.900;2022-11-20T12:52:29;6.27;;;3.90;;
19036;SDS011;9651;49.138;8.900;2022-11-20T12:56:40;6.43;;;2.40;;
19036;SDS011;9651;49.138;8.900;2022-11-20T13:00:51;5.10;;;2.50;;
19036;SDS011;9651;49.138;8.900;2022-11-20T13:05:04;4.83;;;2.83;;
19036;SDS011;9651;49.138;8.900;2022-11-20T13:09:19;7.97;;;2.40;;
19036;SDS011;9651;49.138;8.900;2022-11-20T13:13:25;3.60;;;1.90;;
19036;SDS011;9651;49.138;8.900;2022-11-20T13:17:36;4.40;;;1.90;;
19036;SDS011;9651;49.138;8.900;2022-11-20T13:21:44;6.73;;;1.87;;
19036;SDS011;9651;49.138;8.900;2022-11-20T13:25:49;7.17;;;3.50;;
19036;SDS011;9651;49.138;8.900;2022-11-20T13:29:59;3.23;;;2.30;;
19036;SDS011;9651;49.138;8.900;2022-11-20T13:34:04;10.27;;;4.43;;
19036;SDS011;9651;49.138;8.900;2022-11-20T13:38:10;7.70;;;4.63;;
19036;SDS011;9651;49.138;8.900;2022-11-20T13:42:20;2.50;;;2.27;;
19036;SDS011;9651;49.138;8.900;2022-11-20T13:46:35;2.50;;;1.37;;
19036;SDS011;9651;49.138;8.900;2022-11-20T13:50:39;4.50;;;1.50;;
19036;SDS011;9651;49.138;8.900;2022-11-20T13:54:55;2.40;;;1.33;;
19036;SDS011;9651;49.138;8.900;2022-11-20T13:59:02;6.27;;;2.00;;
19036;SDS011;9651;49.138;8.900;2022-11-20T14:03:16;4.37;;;2.13;;
19036;SDS011;9651;49.138;8.900;2022-11-20T14:07:20;4.53;;;2.80;;
19036;SDS011;9651;49.138;8.900;2022-11-20T14:11:27;6.93;;;3.50;;
19036;SDS011;9651;49.138;8.900;2022-11-20T14:15:31;6.20;;;2.23;;
19036;SDS011;9651;49.138;8.900;2022-11-20T14:19:34;3.73;;;2.10;;
19036;SDS011;9651;49.138;8.900;2022-11-20T14:23:37;5.77;;;2.00;;
19036;SDS011;9651;49.138;8.900;2022-11-20T14:27:42;4.07;;;1.57;;
19036;SDS011;9651;49.138;8.900;2022-11-20T14:31:47;3.20;;;1.53;;
19036;SDS011;9651;49.138;8.900;2022-11-20T14:35:53;2.73;;;2.13;;
19036;SDS011;9651;49.138;8.900;2022-11-20T14:39:56;4.30;;;2.40;;
19036;SDS011;9651;49.138;8.900;2022-11-20T14:44:00;4.10;;;2.70;;
19036;SDS011;9651;49.138;8.900;2022-11-20T14:48:03;3.47;;;1.67;;
19036;SDS011;9651;49.138;8.900;2022-11-20T14:52:10;5.63;;;3.13;;
19036;SDS011;9651;49.138;8.900;2022-11-20T14:56:20;4.23;;;2.50;;
19036;SDS011;9651;49.138;8.900;2022-11-20T15:00:25;4.07;;;1.73;;
19036;SDS011;9651;49.138;8.900;2022-11-20T15:04:27;3.83;;;1.80;;
19036;SDS011;9651;49.138;8.900;2022-11-20T15:08:29;6.63;;;1.93;;
19036;SDS011;9651;49.138;8.900;2022-11-20T15:12:31;8.07;;;4.40;;
19036;SDS011;9651;49.138;8.900;2022-11-20T15:16:36;7.13;;;4.47;;
19036;SDS011;9651;49.138;8.900;2022-11-20T15:20:38;5.57;;;4.53;;
19036;SDS011;9651;49.138;8.900;2022-11-20T15:24:41;7.47;;;5.33;;
19036;SDS011;9651;49.138;8.900;2022-11-20T15:28:44;6.77;;;6.07;;
19036;SDS011;9651;49.138;8.900;2022-11-20T15:32:49;3.23;;;2.93;;
19036;SDS011;9651;49.138;8.900;2022-11-20T15:36:50;2.43;;;2.13;;
19036;SDS011;9651;49.138;8.900;2022-11-20T15:40:53;6.27;;;2.83;;
19036;SDS011;9651;49.138;8.900;2022-11-20T15:44:54;7.40;;;4.87;;
19036;SDS011;9651;49.138;8.900;2022-11-20T15:48:58;5.90;;;2.80;;
19036;SDS011;9651;49.138;8.900;2022-11-20T15:53:01;3.37;;;2.10;;
19036;SDS011;9651;49.138;8.900;2022-11-20T15:57:03;4.67;;;2.13;;
19036;SDS011;9651;49.138;8.900;2022-11-20T16:01:08;3.67;;;2.03;;
19036;SDS011;9651;49.138;8.900;2022-11-20T16:05:13;2.90;;;1.80;;
19036;SDS011;9651;49.138;8.900;2022-11-20T16:09:16;3.20;;;2.53;;
19036;SDS011;9651;49.138;8.900;2022-11-20T16:13:18;2.90;;;2.00;;
19036;SDS011;9651;49.138;8.900;2022-11-20T16:17:38;2.40;;;1.10;;
19036;SDS011;9651;49.138;8.900;2022-11-20T16:21:44;2.90;;;1.30;;
19036;SDS011;9651;49.138;8.900;2022-11-20T16:25:47;2.40;;;1.30;;
19036;SDS011;9651;49.138;8.900;2022-11-20T16:29:49;4.83;;;1.67;;
19036;SDS011;9651;49.138;8.900;2022-11-20T16:33:51;1.90;;;1.27;;
19036;SDS011;9651;49.138;8.900;2022-11-20T16:37:55;1.47;;;1.33;;
19036;SDS011;9651;49.138;8.900;2022-11-20T16:41:57;3.40;;;2.23;;
19036;SDS011;9651;49.138;8.900;2022-11-20T16:45:59;2.70;;;1.80;;
19036;SDS011;9651;49.138;8.900;2022-11-20T16:50:05;5.70;;;1.23;;
19036;SDS011;9651;49.138;8.900;2022-11-20T16:54:09;1.13;;;0.90;;
19036;SDS011;9651;49.138;8.900;2022-11-20T16:58:11;2.07;;;0.87;;
19036;SDS011;9651;49.138;8.900;2022-11-20T17:02:14;2.30;;;1.13;;
19036;SDS011;9651;49.138;8.900;2022-11-20T17:06:16;2.17;;;1.70;;
19036;SDS011;9651;49.138;8.900;2022-11-20T17:10:20;3.83;;;1.83;;
19036;SDS011;9651;49.138;8.900;2022-11-20T17:14:22;2.07;;;1.60;;
19036;SDS011;9651;49.138;8.900;2022-11-20T17:18:26;2.90;;;1.47;;
19036;SDS011;9651;49.138;8.900;2022-11-20T17:22:29;1.67;;;1.30;;
19036;SDS011;9651;49.138;8.900;2022-11-20T17:26:33;2.40;;;1.60;;
19036;SDS011;9651;49.138;8.900;2022-11-20T17:30:36;4.00;;;1.80;;
19036;SDS011;9651;49.138;8.900;2022-11-20T17:34:38;3.93;;;1.90;;
19036;SDS011;9651;49.138;8.900;2022-11-20T17:38:40;5.27;;;2.13;;
19036;SDS011;9651;49.138;8.900;2022-11-20T17:42:43;4.17;;;2.53;;
19036;SDS011;9651;49.138;8.900;2022-11-20T17:46:45;5.53;;;2.73;;
19036;SDS011;9651;49.138;8.900;2022-11-20T17:50:47;2.90;;;1.80;;
19036;SDS011;9651;49.138;8.900;2022-11-20T17:54:49;5.97;;;2.37;;
19036;SDS011;9651;49.138;8.900;2022-11-20T17:58:56;3.83;;;2.13;;
19036;SDS011;9651;49.138;8.900;2022-11-20T18:02:58;5.47;;;1.80;;
19036;SDS011;9651;49.138;8.900;2022-11-20T18:07:00;4.43;;;2.27;;
19036;SDS011;9651;49.138;8.900;2022-11-20T18:11:08;3.90;;;2.53;;
19036;SDS011;9651;49.138;8.900;2022-11-20T18:15:12;4.57;;;2.60;;
19036;SDS011;9651;49.138;8.900;2022-11-20T18:19:15;4.47;;;2.83;;
19036;SDS011;9651;49.138;8.900;2022-11-20T18:23:18;2.77;;;1.93;;
19036;SDS011;9651;49.138;8.900;2022-11-20T18:27:19;4.10;;;1.83;;
19036;SDS011;9651;49.138;8.900;2022-11-20T18:31:24;6.87;;;3.07;;
19036;SDS011;9651;49.138;8.900;2022-11-20T18:35:26;5.53;;;2.50;;
19036;SDS011;9651;49.138;8.900;2022-11-20T18:39:28;2.90;;;1.83;;
19036;SDS011;9651;49.138;8.900;2022-11-20T18:43:30;3.47;;;1.93;;
19036;SDS011;9651;49.138;8.900;2022-11-20T18:47:59;2.77;;;1.70;;
19036;SDS011;9651;49.138;8.900;2022-11-20T18:52:01;2.07;;;1.40;;
19036;SDS011;9651;49.138;8.900;2022-11-20T18:56:03;3.80;;;1.80;;
19036;SDS011;9651;49.138;8.900;2022-11-20T19:00:05;4.60;;;1.80;;
19036;SDS011;9651;49.138;8.900;2022-11-20T19:04:10;3.90;;;2.40;;
19036;SDS011;9651;49.138;8.900;2022-11-20T19:08:13;3.53;;;1.90;;
19036;SDS011;9651;49.138;8.900;2022-11-20T19:12:15;2.83;;;1.77;;
19036;SDS011;9651;49.138;8.900;2022-11-20T19:16:18;2.07;;;1.20;;
19036;SDS011;9651;49.138;8.900;2022-11-20T19:20:22;1.30;;;1.20;;
19036;SDS011;9651;49.138;8.900;2022-11-20T19:24:25;3.40;;;1.40;;
19036;SDS011;9651;49.138;8.900;2022-11-20T19:28:29;2.27;;;1.03;;
19036;SDS011;9651;49.138;8.900;2022-11-20T19:32:31;1.47;;;1.20;;
19036;SDS011;9651;49.138;8.900;2022-11-20T19:36:36;1.90;;;1.17;;
19036;SDS011;9651;49.138;8.900;2022-11-20T19:40:38;3.47;;;2.30;;
19036;SDS011;9651;49.138;8.900;2022-11-20T19:44:40;3.97;;;1.40;;
19036;SDS011;9651;49.138;8.900;2022-11-20T19:48:42;3.13;;;1.60;;
19036;SDS011;9651;49.138;8.900;2022-11-20T19:52:45;2.97;;;1.40;;
19036;SDS011;9651;49.138;8.900;2022-11-20T19:56:47;1.77;;;1.53;;
19036;SDS011;9651;49.138;8.900;2022-11-20T20:00:49;3.83;;;1.63;;
19036;SDS011;9651;49.138;8.900;2022-11-20T20:04:51;2.60;;;1.60;;
19036;SDS011;9651;49.138;8.900;2022-11-20T20:08:55;1.80;;;1.20;;
19036;SDS011;9651;49.138;8.900;2022-11-20T20:12:58;6.70;;;1.90;;
19036;SDS011;9651;49.138;8.900;2022-11-20T20:17:00;5.13;;;2.00;;
19036;SDS011;9651;49.138;8.900;2022-11-20T20:21:02;3.93;;;1.70;;
19036;SDS011;9651;49.138;8.900;2022-11-20T20:25:06;2.63;;;1.50;;
19036;SDS011;9651;49.138;8.900;2022-11-20T20:29:08;1.10;;;0.80;;
19036;SDS011;9651;49.138;8.900;2022-11-20T20:33:10;3.53;;;1.27;;
19036;SDS011;9651;49.138;8.900;2022-11-20T20:37:12;2.50;;;1.37;;
19036;SDS011;9651;49.138;8.900;2022-11-20T20:41:16;2.83;;;1.53;;
19036;SDS011;9651;49.138;8.900;2022-11-20T20:45:20;1.40;;;1.10;;
19036;SDS011;9651;49.138;8.900;2022-11-20T20:49:22;2.90;;;1.00;;
19036;SDS011;9651;49.138;8.900;2022-11-20T20:53:23;1.73;;;1.10;;
19036;SDS011;9651;49.138;8.900;2022-11-20T20:57:28;1.00;;;0.80;;
19036;SDS011;9651;49.138;8.900;2022-11-20T21:01:29;1.50;;;1.30;;
19036;SDS011;9651;49.138;8.900;2022-11-20T21:05:31;1.03;;;0.90;;
19036;SDS011;9651;49.138;8.900;2022-11-20T21:09:33;2.80;;;1.73;;
19036;SDS011;9651;49.138;8.900;2022-11-20T21:13:37;1.60;;;0.87;;
19036;SDS011;9651;49.138;8.900;2022-11-20T21:17:40;1.47;;;1.13;;
19036;SDS011;9651;49.138;8.900;2022-11-20T21:21:43;2.37;;;1.10;;
19036;SDS011;9651;49.138;8.900;2022-11-20T21:26:03;2.90;;;1.03;;
19036;SDS011;9651;49.138;8.900;2022-11-20T21:30:08;2.60;;;1.30;;
19036;SDS011;9651;49.138;8.900;2022-11-20T21:34:10;1.93;;;1.30;;
19036;SDS011;9651;49.138;8.900;2022-11-20T21:38:13;2.00;;;1.30;;
19036;SDS011;9651;49.138;8.900;2022-11-20T21:42:15;1.63;;;1.33;;
19036;SDS011;9651;49.138;8.900;2022-11-20T21:46:18;3.30;;;1.40;;
19036;SDS011;9651;49.138;8.900;2022-11-20T21:50:20;1.67;;;1.10;;
19036;SDS011;9651;49.138;8.900;2022-11-20T21:54:22;1.20;;;1.10;;
19036;SDS011;9651;49.138;8.900;2022-11-20T21:58:24;2.03;;;1.40;;
19036;SDS011;9651;49.138;8.900;2022-11-20T22:02:27;2.50;;;1.30;;
19036;SDS011;9651;49.138;8.900;2022-11-20T22:06:30;2.73;;;1.63;;
19036;SDS011;9651;49.138;8.900;2022-11-20T22:10:33;2.30;;;1.33;;
19036;SDS011;9651;49.138;8.900;2022-11-20T22:14:35;3.27;;;1.67;;
19036;SDS011;9651;49.138;8.900;2022-11-20T22:18:41;4.53;;;1.80;;
19036;SDS011;9651;49.138;8.900;2022-11-20T22:22:44;3.53;;;1.33;;
19036;SDS011;9651;49.138;8.900;2022-11-20T22:26:46;5.00;;;1.20;;
19036;SDS011;9651;49.138;8.900;2022-11-20T22:30:49;1.87;;;1.40;;
19036;SDS011;9651;49.138;8.900;2022-11-20T22:34:52;4.93;;;1.00;;
19036;SDS011;9651;49.138;8.900;2022-11-20T22:38:54;1.33;;;0.90;;
19036;SDS011;9651;49.138;8.900;2022-11-20T22:42:56;3.23;;;1.10;;
19036;SDS011;9651;49.138;8.900;2022-11-20T22:46:58;1.70;;;1.00;;
19036;SDS011;9651;49.138;8.900;2022-11-20T22:51:03;3.13;;;0.90;;
19036;SDS011;9651;49.138;8.900;2022-11-20T22:55:06;2.60;;;0.90;;
19036;SDS011;9651;49.138;8.900;2022-11-20T22:59:09;1.77;;;0.77;;
19036;SDS011;9651;49.138;8.900;2022-11-20T23:03:11;1.47;;;0.87;;
19036;SDS011;9651;49.138;8.900;2022-11-20T23:07:14;1.83;;;0.90;;
19036;SDS011;9651;49.138;8.900;2022-11-20T23:11:17;3.43;;;0.80;;
19036;SDS011;9651;49.138;8.900;2022-11-20T23:15:20;1.17;;;0.70;;
19036;SDS011;9651;49.138;8.900;2022-11-20T23:19:22;1.63;;;0.80;;
19036;SDS011;9651;49.138;8.900;2022-11-20T23:23:25;3.07;;;1.00;;
19036;SDS011;9651;49.138;8.900;2022-11-20T23:27:27;2.30;;;1.00;;
19036;SDS011;9651;49.138;8.900;2022-11-20T23:31:29;3.50;;;0.77;;
19036;SDS011;9651;49.138;8.900;2022-11-20T23:35:36;1.87;;;1.10;;
19036;SDS011;9651;49.138;8.900;2022-11-20T23:39:40;3.50;;;1.13;;
19036;SDS011;9651;49.138;8.900;2022-11-20T23:43:42;1.10;;;0.80;;
19036;SDS011;9651;49.138;8.900;2022-11-20T23:47:44;2.70;;;1.13;;
19036;SDS011;9651;49.138;8.900;2022-11-20T23:51:46;2.60;;;1.03;;
19036;SDS011;9651;49.138;8.900;2022-11-20T23:55:50;7.80;;;1.40;;
19036;SDS011;9651;49.138;8.900;2022-11-20T23:59:53;2.50;;;1.70;;
